createdAt,value
2022-08-17T00:00:42.715Z,49.50
2022-08-17T00:03:17.196Z,49.70
2022-08-17T00:05:48.787Z,49.70
2022-08-17T00:08:20.349Z,49.70
2022-08-17T00:10:49.900Z,49.70
2022-08-17T00:13:21.557Z,49.70
2022-08-17T00:15:51.797Z,49.70
2022-08-17T00:19:02.014Z,49.70
2022-08-17T00:21:11.335Z,49.80
2022-08-17T00:23:47.752Z,50.60
2022-08-17T00:26:43.442Z,50.00
2022-08-17T00:29:09.113Z,50.10
2022-08-17T00:31:39.359Z,50.10
2022-08-17T00:34:10.304Z,50.20
2022-08-17T00:36:39.361Z,50.30
2022-08-17T00:39:08.179Z,50.20
2022-08-17T00:41:42.094Z,50.50
2022-08-17T00:44:12.469Z,50.80
2022-08-17T00:46:44.407Z,50.90
2022-08-17T00:49:15.408Z,50.80
2022-08-17T00:51:47.542Z,50.90
2022-08-17T00:54:19.988Z,51.00
2022-08-17T00:56:53.760Z,51.10
2022-08-17T00:59:25.187Z,51.30
2022-08-17T01:01:55.460Z,51.20
2022-08-17T01:04:25.286Z,51.10
2022-08-17T01:06:54.858Z,51.20
2022-08-17T01:09:24.151Z,51.40
2022-08-17T01:11:53.165Z,51.40
2022-08-17T01:14:23.016Z,51.50
2022-08-17T01:16:53.910Z,51.50
2022-08-17T01:19:26.667Z,51.60
2022-08-17T01:22:02.220Z,51.70
2022-08-17T01:24:33.681Z,52.10
2022-08-17T01:27:02.880Z,52.30
2022-08-17T01:29:42.298Z,52.30
2022-08-17T01:32:11.508Z,52.50
2022-08-17T01:34:42.954Z,52.70
2022-08-17T01:37:14.118Z,52.60
2022-08-17T01:39:46.898Z,52.70
2022-08-17T01:42:22.036Z,53.50
2022-08-17T01:44:54.520Z,53.20
2022-08-17T01:47:23.548Z,53.80
2022-08-17T01:49:52.918Z,53.30
2022-08-17T01:52:23.790Z,53.50
2022-08-17T01:54:54.516Z,55.00
2022-08-17T01:57:23.368Z,54.00
2022-08-17T01:59:52.300Z,54.10
2022-08-17T02:02:30.349Z,54.30
2022-08-17T02:05:00.151Z,54.20
2022-08-17T02:07:29.517Z,54.30
2022-08-17T02:09:59.641Z,54.40
2022-08-17T02:12:38.591Z,54.40
2022-08-17T02:15:12.465Z,54.60
2022-08-17T02:17:41.956Z,54.70
2022-08-17T02:20:12.067Z,55.00
2022-08-17T02:22:42.532Z,55.30
2022-08-17T02:25:16.351Z,55.40
2022-08-17T02:27:45.360Z,55.30
2022-08-17T02:30:59.028Z,55.30
2022-08-17T02:33:06.285Z,55.30
2022-08-17T02:35:38.201Z,55.20
2022-08-17T02:38:07.808Z,55.10
2022-08-17T02:40:40.666Z,55.00
2022-08-17T02:43:10.376Z,55.00
2022-08-17T02:45:39.237Z,55.60
2022-08-17T02:48:08.070Z,55.60
2022-08-17T02:50:37.168Z,55.60
2022-08-17T02:53:06.277Z,55.70
2022-08-17T02:55:38.950Z,56.10
2022-08-17T02:58:08.249Z,56.40
2022-08-17T03:00:41.227Z,56.50
2022-08-17T03:03:13.708Z,56.40
2022-08-17T03:05:43.226Z,56.50
2022-08-17T03:08:13.134Z,56.50
2022-08-17T03:10:44.256Z,56.20
2022-08-17T03:13:14.764Z,56.20
2022-08-17T03:15:46.118Z,56.20
2022-08-17T03:18:25.082Z,56.80
2022-08-17T03:20:57.758Z,56.80
2022-08-17T03:23:27.206Z,56.90
2022-08-17T03:25:58.241Z,56.90
2022-08-17T03:28:28.351Z,56.70
2022-08-17T03:30:57.326Z,56.90
2022-08-17T03:33:26.367Z,57.50
2022-08-17T03:35:55.229Z,57.80
2022-08-17T03:38:24.428Z,57.90
2022-08-17T03:40:58.057Z,58.10
2022-08-17T03:43:31.396Z,58.30
2022-08-17T03:46:33.829Z,58.70
2022-08-17T03:49:23.081Z,59.00
2022-08-17T03:52:09.486Z,58.90
2022-08-17T03:54:55.738Z,58.80
2022-08-17T03:57:26.086Z,59.00
2022-08-17T03:59:57.187Z,59.10
2022-08-17T04:02:30.026Z,59.00
2022-08-17T04:04:59.649Z,59.00
2022-08-17T04:07:31.657Z,59.40
2022-08-17T04:10:00.738Z,60.00
2022-08-17T04:12:31.508Z,60.50
2022-08-17T04:15:01.813Z,60.60
2022-08-17T04:17:31.260Z,60.30
2022-08-17T04:20:00.178Z,60.50
2022-08-17T04:22:31.229Z,60.40
2022-08-17T04:25:05.171Z,60.30
2022-08-17T04:27:34.077Z,60.10
2022-08-17T04:30:07.540Z,60.00
2022-08-17T04:33:09.882Z,59.90
2022-08-17T04:35:42.427Z,60.00
2022-08-17T04:38:13.340Z,60.30
2022-08-17T04:40:59.629Z,61.00
2022-08-17T04:43:30.176Z,61.40
2022-08-17T04:46:03.796Z,61.60
2022-08-17T04:48:37.021Z,61.60
2022-08-17T04:51:10.195Z,60.90
2022-08-17T04:53:40.568Z,59.90
2022-08-17T04:56:11.779Z,59.30
2022-08-17T04:58:46.579Z,59.30
2022-08-17T05:01:23.643Z,58.20
2022-08-17T05:03:53.377Z,57.50
2022-08-17T05:06:22.623Z,56.60
2022-08-17T05:08:51.462Z,55.80
2022-08-17T05:11:20.525Z,54.80
2022-08-17T05:13:50.494Z,53.70
2022-08-17T05:16:22.349Z,52.30
2022-08-17T05:18:51.858Z,52.10
2022-08-17T05:21:21.456Z,51.50
2022-08-17T05:23:54.737Z,50.80
2022-08-17T05:26:26.800Z,50.10
2022-08-17T05:28:59.592Z,49.50
2022-08-17T05:31:32.202Z,49.10
2022-08-17T05:34:01.257Z,48.40
2022-08-17T05:36:41.963Z,47.80
2022-08-17T05:39:15.881Z,46.80
2022-08-17T05:41:47.934Z,46.20
2022-08-17T05:44:17.263Z,45.70
2022-08-17T05:46:52.282Z,45.20
2022-08-17T05:49:28.469Z,44.80
2022-08-17T05:52:22.228Z,44.30
2022-08-17T05:55:04.738Z,43.70
2022-08-17T05:57:56.043Z,43.30
2022-08-17T06:00:30.854Z,42.70
2022-08-17T06:03:21.898Z,42.30
2022-08-17T06:06:04.542Z,41.60
2022-08-17T06:08:38.607Z,41.00
2022-08-17T06:11:19.848Z,40.50
2022-08-17T06:14:02.198Z,39.80
2022-08-17T06:16:36.831Z,39.20
2022-08-17T06:19:15.187Z,38.50
2022-08-17T06:21:47.586Z,38.00
2022-08-17T06:24:34.413Z,37.50
2022-08-17T06:27:09.708Z,36.70
2022-08-17T06:29:46.490Z,36.30
2022-08-17T06:32:18.030Z,35.60
2022-08-17T06:34:49.359Z,35.30
2022-08-17T06:37:33.225Z,34.70
2022-08-17T06:40:23.231Z,33.90
2022-08-17T06:43:06.545Z,33.20
2022-08-17T06:45:40.658Z,33.20
2022-08-17T06:48:14.311Z,32.80
2022-08-17T06:50:49.215Z,32.50
2022-08-17T06:53:25.167Z,31.90
2022-08-17T06:56:00.018Z,30.60
2022-08-17T06:58:33.555Z,30.00
2022-08-17T07:01:09.710Z,30.20
2022-08-17T07:03:54.715Z,30.20
2022-08-17T07:06:29.192Z,29.60
2022-08-17T07:09:05.500Z,29.70
2022-08-17T07:11:42.682Z,28.80
2022-08-17T07:14:36.697Z,28.60
2022-08-17T07:17:10.542Z,28.30
2022-08-17T07:19:45.604Z,28.00
2022-08-17T07:22:28.087Z,28.20
2022-08-17T07:24:59.837Z,28.20
2022-08-17T07:27:31.738Z,28.10
2022-08-17T07:30:09.547Z,28.00
2022-08-17T07:32:45.440Z,28.10
2022-08-17T07:35:17.891Z,28.00
2022-08-17T07:37:54.501Z,27.90
2022-08-17T07:40:28.368Z,27.70
2022-08-17T07:43:06.530Z,27.30
2022-08-17T07:45:54.457Z,27.00
2022-08-17T07:48:27.098Z,26.10
2022-08-17T07:50:56.048Z,25.20
2022-08-17T07:53:27.658Z,24.50
2022-08-17T07:55:56.510Z,24.90
2022-08-17T07:58:26.736Z,24.80
2022-08-17T08:01:08.078Z,24.90
2022-08-17T08:03:42.920Z,25.20
2022-08-17T08:06:22.768Z,25.30
2022-08-17T08:08:57.358Z,25.10
2022-08-17T08:11:42.454Z,25.30
2022-08-17T08:14:28.281Z,25.40
2022-08-17T08:17:00.505Z,25.10
2022-08-17T08:19:30.629Z,24.30
2022-08-17T08:22:06.297Z,23.70
2022-08-17T08:24:52.257Z,24.00
2022-08-17T08:27:31.410Z,24.00
2022-08-17T08:30:07.931Z,23.40
2022-08-17T08:32:50.295Z,23.60
2022-08-17T08:35:27.146Z,23.70
2022-08-17T08:38:07.746Z,23.60
2022-08-17T08:40:54.185Z,23.30
2022-08-17T08:43:30.557Z,23.20
2022-08-17T08:46:05.230Z,23.00
2022-08-17T08:49:06.548Z,23.00
2022-08-17T08:51:48.419Z,22.80
2022-08-17T08:54:34.609Z,22.60
2022-08-17T08:57:29.213Z,22.50
2022-08-17T09:00:14.627Z,22.40
2022-08-17T09:03:12.877Z,22.40
2022-08-17T09:06:06.968Z,22.00
2022-08-17T09:09:07.159Z,21.50
2022-08-17T09:12:01.973Z,21.00
2022-08-17T09:14:45.073Z,20.90
2022-08-17T09:17:21.577Z,21.00
2022-08-17T09:19:56.012Z,20.60
2022-08-17T09:22:33.772Z,21.00
2022-08-17T09:25:09.436Z,21.00
2022-08-17T09:27:49.778Z,21.10
2022-08-17T09:30:20.750Z,21.10
2022-08-17T09:32:57.617Z,21.10
2022-08-17T09:35:33.763Z,21.00
2022-08-17T09:38:18.821Z,20.90
2022-08-17T09:40:52.853Z,20.90
2022-08-17T09:43:31.701Z,20.70
2022-08-17T09:46:05.213Z,20.60
2022-08-17T09:48:40.181Z,20.60
2022-08-17T09:51:14.672Z,20.40
2022-08-17T09:53:44.808Z,20.40
2022-08-17T09:56:42.333Z,20.20
2022-08-17T09:59:34.190Z,20.30
2022-08-17T10:02:44.429Z,20.30
2022-08-17T10:05:19.034Z,19.90
2022-08-17T10:07:56.063Z,20.70
2022-08-17T10:10:30.502Z,20.20
2022-08-17T10:13:06.390Z,20.20
2022-08-17T10:15:48.301Z,20.20
2022-08-17T10:18:35.541Z,20.10
2022-08-17T10:21:25.830Z,19.80
2022-08-17T10:24:23.188Z,19.60
2022-08-17T10:26:56.551Z,19.50
2022-08-17T10:29:30.046Z,19.60
2022-08-17T10:32:27.018Z,19.60
2022-08-17T10:35:17.940Z,19.50
2022-08-17T10:38:15.431Z,19.40
2022-08-17T10:40:51.477Z,19.40
2022-08-17T10:43:34.998Z,19.50
2022-08-17T10:46:30.662Z,19.10
2022-08-17T10:49:25.771Z,19.30
2022-08-17T10:51:57.131Z,19.00
2022-08-17T10:54:47.411Z,18.70
2022-08-17T10:57:40.516Z,18.70
2022-08-17T11:00:14.826Z,19.00
2022-08-17T11:02:52.178Z,18.90
2022-08-17T11:05:45.108Z,18.80
2022-08-17T11:09:03.902Z,18.80
2022-08-17T11:11:47.562Z,19.50
2022-08-17T11:14:33.290Z,19.50
2022-08-17T11:17:20.331Z,19.10
2022-08-17T11:20:05.629Z,18.70
2022-08-17T11:23:10.182Z,19.20
2022-08-17T11:25:41.875Z,19.40
2022-08-17T11:28:19.577Z,19.60
2022-08-17T11:30:52.046Z,19.70
2022-08-17T11:33:57.516Z,19.40
2022-08-17T11:37:10.885Z,18.80
2022-08-17T11:40:09.113Z,18.90
2022-08-17T11:43:03.441Z,18.60
2022-08-17T11:46:11.800Z,19.20
2022-08-17T11:49:21.155Z,18.90
2022-08-17T11:52:10.209Z,19.50
2022-08-17T11:54:47.182Z,20.20
2022-08-17T11:57:55.763Z,20.10
2022-08-17T12:00:56.872Z,19.70
2022-08-17T12:03:58.141Z,19.30
2022-08-17T12:06:41.871Z,19.10
2022-08-17T12:09:18.090Z,19.00
2022-08-17T12:11:55.159Z,19.00
2022-08-17T12:15:08.885Z,18.90
2022-08-17T12:17:41.207Z,18.10
2022-08-17T12:20:16.271Z,18.30
2022-08-17T12:22:54.817Z,18.00
2022-08-17T12:25:33.142Z,17.80
2022-08-17T12:28:05.962Z,17.50
2022-08-17T12:30:37.882Z,17.00
2022-08-17T12:33:25.460Z,17.20
2022-08-17T12:36:04.226Z,17.20
2022-08-17T12:38:34.840Z,17.00
2022-08-17T12:41:26.441Z,17.00
2022-08-17T12:44:02.483Z,17.00
2022-08-17T12:46:35.850Z,17.50
2022-08-17T12:49:15.632Z,16.90
2022-08-17T12:51:47.989Z,16.80
2022-08-17T12:54:28.364Z,16.80
2022-08-17T12:56:57.453Z,16.60
2022-08-17T12:59:30.236Z,16.50
2022-08-17T13:02:00.261Z,16.50
2022-08-17T13:04:29.745Z,16.40
2022-08-17T13:07:00.126Z,16.60
2022-08-17T13:09:36.059Z,16.80
2022-08-17T13:12:10.964Z,16.60
2022-08-17T13:14:45.802Z,16.40
2022-08-17T13:17:15.120Z,16.60
2022-08-17T13:19:50.845Z,16.70
2022-08-17T13:22:24.700Z,16.90
2022-08-17T13:24:55.750Z,17.10
2022-08-17T13:27:26.922Z,17.40
2022-08-17T13:29:59.557Z,17.50
2022-08-17T13:32:37.897Z,17.60
2022-08-17T13:35:40.544Z,17.50
2022-08-17T13:38:15.217Z,17.20
2022-08-17T13:40:49.235Z,17.40
2022-08-17T13:43:40.845Z,17.10
2022-08-17T13:46:11.450Z,16.50
2022-08-17T13:48:40.183Z,16.70
2022-08-17T13:51:31.580Z,16.60
2022-08-17T13:54:09.944Z,16.40
2022-08-17T13:56:46.681Z,16.60
2022-08-17T13:59:53.255Z,16.40
2022-08-17T14:02:15.394Z,16.40
2022-08-17T14:04:46.191Z,16.60
2022-08-17T14:07:33.800Z,16.60
2022-08-17T14:10:08.419Z,16.40
2022-08-17T14:12:39.271Z,16.50
2022-08-17T14:15:09.261Z,16.30
2022-08-17T14:17:39.085Z,16.60
2022-08-17T14:20:11.842Z,16.80
2022-08-17T14:22:44.490Z,17.20
2022-08-17T14:25:16.743Z,17.40
2022-08-17T14:27:52.467Z,17.60
2022-08-17T14:30:25.165Z,17.90
2022-08-17T14:32:54.715Z,18.20
2022-08-17T14:35:24.435Z,18.50
2022-08-17T14:37:54.153Z,18.80
2022-08-17T14:40:25.550Z,19.10
2022-08-17T14:42:55.629Z,19.50
2022-08-17T14:45:30.186Z,19.80
2022-08-17T14:48:05.690Z,20.10
2022-08-17T14:50:35.685Z,20.40
2022-08-17T14:53:05.973Z,20.80
2022-08-17T14:55:39.910Z,20.90
2022-08-17T14:58:08.865Z,21.20
2022-08-17T15:00:37.547Z,21.50
2022-08-17T15:03:06.822Z,21.80
2022-08-17T15:05:37.622Z,22.10
2022-08-17T15:08:07.502Z,22.40
2022-08-17T15:10:39.081Z,22.60
2022-08-17T15:13:22.788Z,22.70
2022-08-17T15:15:51.751Z,23.00
2022-08-17T15:18:20.342Z,23.00
2022-08-17T15:20:50.710Z,23.10
2022-08-17T15:23:21.120Z,23.30
2022-08-17T15:25:52.721Z,23.40
2022-08-17T15:28:22.913Z,23.40
2022-08-17T15:30:52.616Z,23.50
2022-08-17T15:33:23.984Z,23.50
2022-08-17T15:35:54.189Z,23.60
2022-08-17T15:38:23.547Z,23.60
2022-08-17T15:40:54.353Z,23.70
2022-08-17T15:43:27.670Z,23.70
2022-08-17T15:46:01.267Z,23.80
2022-08-17T15:48:42.216Z,23.90
2022-08-17T15:51:13.675Z,24.00
2022-08-17T15:53:43.326Z,23.90
2022-08-17T15:56:15.049Z,23.90
2022-08-17T15:58:46.614Z,24.00
2022-08-17T16:01:31.337Z,24.10
2022-08-17T16:04:07.075Z,24.70
2022-08-17T16:06:37.813Z,24.30
2022-08-17T16:09:06.301Z,24.40
2022-08-17T16:11:36.591Z,24.60
2022-08-17T16:14:05.247Z,24.50
2022-08-17T16:16:34.428Z,24.50
2022-08-17T16:19:02.852Z,24.60
2022-08-17T16:21:42.761Z,24.70
2022-08-17T16:24:12.823Z,24.80
2022-08-17T16:26:43.681Z,24.90
2022-08-17T16:29:12.400Z,24.90
2022-08-17T16:31:41.879Z,25.00
2022-08-17T16:34:17.135Z,25.20
2022-08-17T16:36:54.658Z,25.20
2022-08-17T16:39:26.657Z,25.30
2022-08-17T16:41:56.763Z,25.40
2022-08-17T16:44:26.160Z,25.50
2022-08-17T16:46:54.740Z,25.60
2022-08-17T16:49:23.296Z,25.80
2022-08-17T16:52:06.199Z,25.90
2022-08-17T16:54:35.510Z,26.00
2022-08-17T16:57:06.014Z,26.00
2022-08-17T16:59:39.603Z,26.00
2022-08-17T17:02:14.908Z,26.20
2022-08-17T17:04:49.666Z,26.30
2022-08-17T17:07:37.326Z,26.40
2022-08-17T17:10:10.390Z,26.50
2022-08-17T17:13:01.933Z,26.70
2022-08-17T17:15:43.677Z,26.70
2022-08-17T17:18:14.753Z,26.80
2022-08-17T17:20:49.999Z,26.90
2022-08-17T17:23:34.953Z,27.10
2022-08-17T17:26:11.884Z,27.30
2022-08-17T17:29:00.835Z,27.50
2022-08-17T17:31:38.176Z,27.50
2022-08-17T17:34:11.400Z,27.60
2022-08-17T17:36:43.151Z,27.70
2022-08-17T17:39:16.561Z,27.80
2022-08-17T17:41:50.091Z,28.00
2022-08-17T17:44:25.453Z,28.20
2022-08-17T17:46:57.961Z,28.30
2022-08-17T17:49:29.772Z,28.40
2022-08-17T17:52:14.419Z,28.50
2022-08-17T17:55:04.380Z,28.70
2022-08-17T17:57:51.102Z,29.00
2022-08-17T18:00:25.058Z,29.10
2022-08-17T18:03:15.231Z,29.20
2022-08-17T18:05:58.173Z,29.40
2022-08-17T18:08:47.870Z,29.50
2022-08-17T18:11:35.252Z,29.60
2022-08-17T18:14:15.161Z,29.80
2022-08-17T18:16:48.102Z,30.00
2022-08-17T18:19:20.076Z,30.00
2022-08-17T18:21:53.893Z,30.80
2022-08-17T18:24:33.161Z,30.50
2022-08-17T18:27:03.040Z,30.80
2022-08-17T18:29:45.489Z,31.00
2022-08-17T18:32:23.510Z,31.10
2022-08-17T18:34:54.283Z,31.20
2022-08-17T18:37:40.857Z,31.30
2022-08-17T18:40:34.731Z,31.50
2022-08-17T18:43:22.710Z,31.70
2022-08-17T18:45:53.515Z,31.70
2022-08-17T18:48:33.341Z,31.90
2022-08-17T18:51:39.688Z,32.00
2022-08-17T18:54:17.351Z,32.10
2022-08-17T18:56:51.341Z,32.20
2022-08-17T18:59:28.916Z,32.30
2022-08-17T19:02:38.799Z,32.40
2022-08-17T19:05:14.425Z,32.60
2022-08-17T19:07:45.194Z,32.70
2022-08-17T19:10:22.385Z,32.90
2022-08-17T19:13:00.231Z,33.00
2022-08-17T19:15:35.759Z,33.20
2022-08-17T19:18:15.087Z,33.20
2022-08-17T19:20:51.080Z,33.40
2022-08-17T19:23:24.995Z,33.70
2022-08-17T19:25:58.365Z,33.70
2022-08-17T19:28:30.712Z,33.90
2022-08-17T19:31:04.065Z,34.00
2022-08-17T19:33:33.297Z,34.10
2022-08-17T19:36:08.486Z,34.20
2022-08-17T19:38:47.246Z,34.50
2022-08-17T19:41:23.236Z,34.60
2022-08-17T19:44:15.892Z,34.80
2022-08-17T19:46:56.043Z,34.90
2022-08-17T19:49:41.579Z,34.90
2022-08-17T19:52:24.156Z,35.10
2022-08-17T19:55:01.049Z,35.30
2022-08-17T19:57:49.968Z,35.20
2022-08-17T20:00:19.637Z,35.10
2022-08-17T20:03:07.991Z,35.30
2022-08-17T20:06:08.847Z,35.50
2022-08-17T20:08:34.425Z,35.50
2022-08-17T20:11:09.572Z,35.70
2022-08-17T20:13:43.368Z,35.80
2022-08-17T20:16:12.640Z,35.80
2022-08-17T20:18:50.904Z,36.10
2022-08-17T20:21:26.800Z,36.20
2022-08-17T20:24:05.759Z,36.30
2022-08-17T20:26:58.586Z,36.40
2022-08-17T20:29:39.726Z,36.40
2022-08-17T20:32:26.978Z,36.50
2022-08-17T20:35:21.039Z,36.60
2022-08-17T20:37:56.552Z,36.70
2022-08-17T20:40:33.070Z,36.70
2022-08-17T20:43:39.971Z,36.80
2022-08-17T20:46:18.961Z,37.20
2022-08-17T20:48:50.700Z,37.30
2022-08-17T20:51:27.193Z,37.50
2022-08-17T20:54:35.722Z,37.40
2022-08-17T20:57:06.098Z,37.40
2022-08-17T21:00:14.147Z,37.40
2022-08-17T21:02:44.822Z,37.60
2022-08-17T21:05:38.303Z,37.50
2022-08-17T21:08:15.999Z,37.80
2022-08-17T21:10:47.127Z,37.80
2022-08-17T21:13:39.005Z,37.90
2022-08-17T21:16:27.516Z,38.20
2022-08-17T21:19:19.260Z,38.90
2022-08-17T21:21:59.810Z,38.90
2022-08-17T21:24:41.631Z,38.90
2022-08-17T21:27:24.810Z,38.80
2022-08-17T21:30:17.121Z,38.90
2022-08-17T21:33:06.806Z,39.20
2022-08-17T21:35:49.054Z,39.10
2022-08-17T21:38:20.619Z,39.10
2022-08-17T21:40:51.983Z,39.10
2022-08-17T21:43:32.473Z,39.00
2022-08-17T21:46:08.990Z,39.20
2022-08-17T21:48:45.102Z,39.30
2022-08-17T21:51:21.344Z,39.20
2022-08-17T21:53:52.520Z,39.20
2022-08-17T21:56:26.951Z,39.30
2022-08-17T21:58:59.542Z,39.30
2022-08-17T22:01:31.836Z,39.50
2022-08-17T22:04:05.147Z,39.70
2022-08-17T22:06:38.211Z,39.80
2022-08-17T22:09:15.239Z,39.90
2022-08-17T22:12:10.171Z,40.00
2022-08-17T22:14:52.485Z,40.00
2022-08-17T22:17:25.272Z,39.90
2022-08-17T22:19:56.306Z,40.00
2022-08-17T22:22:33.084Z,40.00
2022-08-17T22:25:05.176Z,40.20
2022-08-17T22:27:52.566Z,40.40
2022-08-17T22:30:33.107Z,40.30
2022-08-17T22:33:29.602Z,40.40
2022-08-17T22:36:12.102Z,40.50
2022-08-17T22:38:41.631Z,40.60
2022-08-17T22:41:34.691Z,40.60
2022-08-17T22:44:17.250Z,40.80
2022-08-17T22:46:57.083Z,40.80
2022-08-17T22:49:30.841Z,41.00
2022-08-17T22:52:24.372Z,41.10
2022-08-17T22:55:35.423Z,41.30
2022-08-17T22:58:28.160Z,41.40
2022-08-17T23:00:56.955Z,41.40
2022-08-17T23:03:27.956Z,41.50
2022-08-17T23:06:08.227Z,41.60
2022-08-17T23:08:43.936Z,41.80
2022-08-17T23:11:15.069Z,42.00
2022-08-17T23:13:44.380Z,42.10
2022-08-17T23:16:14.938Z,42.20
2022-08-17T23:18:43.435Z,42.40
2022-08-17T23:21:13.525Z,42.60
2022-08-17T23:23:55.433Z,42.60
2022-08-17T23:26:24.015Z,42.70
2022-08-17T23:28:52.546Z,42.90
2022-08-17T23:31:25.760Z,43.20
2022-08-17T23:33:54.892Z,43.30
2022-08-17T23:36:28.500Z,43.40
2022-08-17T23:38:57.621Z,43.40
2022-08-17T23:41:29.804Z,43.60
2022-08-17T23:44:00.966Z,43.60
2022-08-17T23:46:29.463Z,43.50
2022-08-17T23:48:57.948Z,43.80
2022-08-17T23:51:30.184Z,43.50
2022-08-17T23:54:07.692Z,43.50
2022-08-17T23:56:41.937Z,43.50
2022-08-17T23:59:11.325Z,43.70
